Time;durP1;ratioP1;P1;durP2;ratioP2;P2;SDS_P1;SDS_P2;PMS_P1;PMS_P2;Temp;Humidity;BMP_temperature;BMP_pressure;BME280_temperature;BME280_humidity;BME280_pressure;Samples;Min_cycle;Max_cycle;Signal;HPM_P1;HPM_P2
2021/09/13 00:01:51;;;;;;;6.40;2.38;;;;;;;;;;5068112;28;20103;-72
2021/09/13 00:04:17;;;;;;;5.00;2.15;;;;;;;;;;5069900;28;20034;-72
2021/09/13 00:06:45;;;;;;;5.00;1.90;;;;;;;;;;5067433;28;20037;-72
2021/09/13 00:09:11;;;;;;;7.63;2.10;;;;;;;;;;5070064;28;20095;-74
2021/09/13 00:11:37;;;;;;;6.28;2.40;;;;;;;;;;5068390;28;20540;-72
2021/09/13 00:14:03;;;;;;;7.78;2.50;;;;;;;;;;5068719;28;20131;-72
2021/09/13 00:16:30;;;;;;;5.03;1.92;;;;;;;;;;5065782;28;20027;-73
2021/09/13 00:18:56;;;;;;;4.60;1.98;;;;;;;;;;5069206;28;20051;-72
2021/09/13 00:21:22;;;;;;;5.28;1.80;;;;;;;;;;5069219;28;20059;-72
2021/09/13 00:23:48;;;;;;;4.55;2.10;;;;;;;;;;5069996;28;20376;-72
2021/09/13 00:26:14;;;;;;;4.40;1.75;;;;;;;;;;5067832;28;20025;-73
2021/09/13 00:28:40;;;;;;;5.03;1.90;;;;;;;;;;5068255;28;20028;-72
2021/09/13 00:31:06;;;;;;;5.20;2.10;;;;;;;;;;5069205;28;20024;-72
2021/09/13 00:33:32;;;;;;;5.00;1.70;;;;;;;;;;5069043;28;20089;-72
2021/09/13 00:35:58;;;;;;;5.75;1.90;;;;;;;;;;5073868;28;20028;-72
2021/09/13 00:38:24;;;;;;;9.05;2.70;;;;;;;;;;5069287;28;20020;-72
2021/09/13 00:40:50;;;;;;;5.43;2.03;;;;;;;;;;5068366;28;20041;-72
2021/09/13 00:43:16;;;;;;;5.35;2.25;;;;;;;;;;5069652;28;20039;-72
2021/09/13 00:45:43;;;;;;;10.07;3.00;;;;;;;;;;5067700;28;20551;-73
2021/09/13 00:48:09;;;;;;;5.25;2.10;;;;;;;;;;5066999;28;20064;-72
2021/09/13 00:50:35;;;;;;;5.80;2.17;;;;;;;;;;5068823;28;20028;-73
2021/09/13 00:53:01;;;;;;;3.95;2.20;;;;;;;;;;5066961;28;20061;-72
2021/09/13 00:55:27;;;;;;;5.53;2.08;;;;;;;;;;5063937;28;20036;-72
2021/09/13 00:57:54;;;;;;;3.33;2.05;;;;;;;;;;5066854;28;20111;-72
2021/09/13 01:00:20;;;;;;;10.35;2.15;;;;;;;;;;5065168;28;20028;-72
2021/09/13 01:02:46;;;;;;;6.60;2.00;;;;;;;;;;5067197;28;20078;-72
2021/09/13 01:05:12;;;;;;;5.68;2.00;;;;;;;;;;5063878;28;20029;-72
2021/09/13 01:07:38;;;;;;;4.38;2.03;;;;;;;;;;5066801;28;20028;-72
2021/09/13 01:10:06;;;;;;;4.32;1.98;;;;;;;;;;5069748;28;20025;-72
2021/09/13 01:12:32;;;;;;;4.93;2.22;;;;;;;;;;5070020;28;20679;-72
2021/09/13 01:14:58;;;;;;;4.72;2.30;;;;;;;;;;5069756;28;20120;-72
2021/09/13 01:17:24;;;;;;;6.53;2.03;;;;;;;;;;5068198;28;20533;-72
2021/09/13 01:19:50;;;;;;;5.45;2.35;;;;;;;;;;5072293;28;20518;-73
2021/09/13 01:22:18;;;;;;;3.92;2.00;;;;;;;;;;5071783;28;20020;-72
2021/09/13 01:24:44;;;;;;;4.63;1.80;;;;;;;;;;5073327;28;20035;-72
2021/09/13 01:27:11;;;;;;;4.20;2.42;;;;;;;;;;5068650;28;20100;-72
2021/09/13 01:29:38;;;;;;;5.03;2.17;;;;;;;;;;5062080;28;20032;-72
2021/09/13 01:32:05;;;;;;;5.55;2.20;;;;;;;;;;5071605;28;20082;-72
2021/09/13 01:34:31;;;;;;;4.90;2.15;;;;;;;;;;5075651;28;20023;-72
2021/09/13 01:36:57;;;;;;;6.35;2.00;;;;;;;;;;5070918;28;20037;-72
2021/09/13 01:39:23;;;;;;;4.88;2.08;;;;;;;;;;5073440;28;20111;-72
2021/09/13 01:41:50;;;;;;;6.03;2.30;;;;;;;;;;5069121;28;20029;-72
2021/09/13 01:44:16;;;;;;;6.28;1.95;;;;;;;;;;5072198;28;20020;-71
2021/09/13 01:46:43;;;;;;;5.55;2.50;;;;;;;;;;5069788;28;20075;-72
2021/09/13 01:49:13;;;;;;;7.78;2.38;;;;;;;;;;5068448;28;20056;-72
2021/09/13 01:51:39;;;;;;;7.40;2.00;;;;;;;;;;5067657;28;20025;-72
2021/09/13 01:54:06;;;;;;;6.43;2.17;;;;;;;;;;5069562;28;20028;-71
2021/09/13 01:56:32;;;;;;;7.25;2.42;;;;;;;;;;5065285;28;20078;-72
2021/09/13 01:58:58;;;;;;;7.03;2.15;;;;;;;;;;5071367;28;20025;-73
2021/09/13 02:01:25;;;;;;;10.35;2.30;;;;;;;;;;5070529;28;20033;-72
2021/09/13 02:03:51;;;;;;;6.15;2.35;;;;;;;;;;5069956;28;20074;-72
2021/09/13 02:06:17;;;;;;;5.15;2.30;;;;;;;;;;5071520;28;20017;-72
2021/09/13 02:08:44;;;;;;;7.03;2.35;;;;;;;;;;5071403;28;20024;-72
2021/09/13 02:11:10;;;;;;;5.93;2.15;;;;;;;;;;5070790;28;20107;-72
2021/09/13 02:13:36;;;;;;;4.82;2.83;;;;;;;;;;5069701;28;20032;-72
2021/09/13 02:16:02;;;;;;;6.05;2.42;;;;;;;;;;5070485;28;20442;-72
2021/09/13 02:18:28;;;;;;;5.32;1.77;;;;;;;;;;5070555;28;20486;-72
2021/09/13 02:20:54;;;;;;;6.25;2.50;;;;;;;;;;5069665;28;20013;-72
2021/09/13 02:23:20;;;;;;;4.75;2.50;;;;;;;;;;5084234;28;20024;-72
2021/09/13 02:25:46;;;;;;;7.35;2.42;;;;;;;;;;5071661;28;20111;-72
2021/09/13 02:28:12;;;;;;;5.75;2.72;;;;;;;;;;5070445;28;20028;-72
2021/09/13 02:30:38;;;;;;;8.00;2.60;;;;;;;;;;5071246;28;20086;-72
2021/09/13 02:33:05;;;;;;;7.10;2.30;;;;;;;;;;5070346;28;20032;-72
2021/09/13 02:35:31;;;;;;;7.28;2.67;;;;;;;;;;5081600;28;20035;-72
2021/09/13 02:37:57;;;;;;;5.60;2.72;;;;;;;;;;5069534;28;20118;-72
2021/09/13 02:40:23;;;;;;;7.80;2.80;;;;;;;;;;5070997;28;20024;-72
2021/09/13 02:42:49;;;;;;;5.60;2.50;;;;;;;;;;5069721;28;20029;-71
2021/09/13 02:45:15;;;;;;;6.70;2.78;;;;;;;;;;5069940;28;20141;-72
2021/09/13 02:47:42;;;;;;;5.57;2.65;;;;;;;;;;5071763;28;20069;-72
2021/09/13 02:50:08;;;;;;;7.43;3.28;;;;;;;;;;5079614;28;20063;-72
2021/09/13 02:52:34;;;;;;;5.72;2.50;;;;;;;;;;5068791;28;20031;-71
2021/09/13 02:55:01;;;;;;;5.88;2.17;;;;;;;;;;5071081;28;20032;-72
2021/09/13 02:57:27;;;;;;;7.88;2.90;;;;;;;;;;5068827;28;20502;-72
2021/09/13 02:59:53;;;;;;;5.28;2.60;;;;;;;;;;5071080;28;20108;-72
2021/09/13 03:02:19;;;;;;;7.93;3.03;;;;;;;;;;5069796;28;20048;-71
2021/09/13 03:04:45;;;;;;;7.35;2.47;;;;;;;;;;5070053;28;20060;-71
2021/09/13 03:07:12;;;;;;;6.95;2.65;;;;;;;;;;5065545;28;20024;-72
2021/09/13 03:09:38;;;;;;;5.47;2.65;;;;;;;;;;5070075;28;20024;-71
2021/09/13 03:12:04;;;;;;;6.47;2.45;;;;;;;;;;5069623;28;20050;-71
2021/09/13 03:14:31;;;;;;;5.90;2.50;;;;;;;;;;5069887;28;20025;-71
2021/09/13 03:16:57;;;;;;;7.43;3.00;;;;;;;;;;5064349;28;20078;-71
2021/09/13 03:19:23;;;;;;;5.85;2.47;;;;;;;;;;5071015;28;20062;-72
2021/09/13 03:21:50;;;;;;;4.55;2.40;;;;;;;;;;5069587;28;20036;-71
2021/09/13 03:24:16;;;;;;;5.35;2.55;;;;;;;;;;5069506;28;20017;-71
2021/09/13 03:26:42;;;;;;;4.93;2.38;;;;;;;;;;5066491;28;20036;-72
2021/09/13 03:29:08;;;;;;;6.05;2.67;;;;;;;;;;5066531;28;20055;-71
2021/09/13 03:31:34;;;;;;;6.18;2.47;;;;;;;;;;5067658;28;20042;-71
2021/09/13 03:34:00;;;;;;;9.38;2.70;;;;;;;;;;5071421;28;20028;-72
2021/09/13 03:36:26;;;;;;;4.63;2.90;;;;;;;;;;5066568;28;20526;-71
2021/09/13 03:38:52;;;;;;;6.80;2.53;;;;;;;;;;5068706;28;20035;-71
2021/09/13 03:41:18;;;;;;;6.00;3.25;;;;;;;;;;5070207;28;20020;-72
2021/09/13 03:43:44;;;;;;;6.05;2.42;;;;;;;;;;5070404;28;20029;-72
2021/09/13 03:46:11;;;;;;;5.25;2.58;;;;;;;;;;5068490;28;20021;-72
2021/09/13 03:48:37;;;;;;;5.80;2.80;;;;;;;;;;5069113;28;20036;-71
2021/09/13 03:51:03;;;;;;;4.75;2.50;;;;;;;;;;5069766;28;20052;-71
2021/09/13 03:53:29;;;;;;;5.75;2.85;;;;;;;;;;5068920;28;20025;-72
2021/09/13 03:55:55;;;;;;;5.15;2.47;;;;;;;;;;5068655;28;20024;-72
2021/09/13 03:58:21;;;;;;;5.47;2.60;;;;;;;;;;5069894;28;20031;-72
2021/09/13 04:00:47;;;;;;;6.13;2.90;;;;;;;;;;5069205;28;20056;-72
2021/09/13 04:03:17;;;;;;;7.60;2.70;;;;;;;;;;5069259;28;20024;-72
2021/09/13 04:05:46;;;;;;;7.95;3.25;;;;;;;;;;5063809;28;20066;-71
2021/09/13 04:13:07;;;;;;;6.18;2.70;;;;;;;;;;5068462;28;20021;-71
2021/09/13 04:15:34;;;;;;;6.18;3.15;;;;;;;;;;5069658;28;20058;-71
2021/09/13 04:18:00;;;;;;;6.82;3.40;;;;;;;;;;5067222;28;20024;-72
2021/09/13 04:20:26;;;;;;;8.57;3.22;;;;;;;;;;5069732;28;20025;-72
2021/09/13 04:22:53;;;;;;;6.53;3.53;;;;;;;;;;5068522;28;20047;-71
2021/09/13 04:25:19;;;;;;;7.03;3.65;;;;;;;;;;5068986;28;20025;-71
2021/09/13 04:27:45;;;;;;;8.20;3.47;;;;;;;;;;5065329;28;20404;-71
2021/09/13 04:30:11;;;;;;;5.10;2.90;;;;;;;;;;5069445;28;20021;-71
2021/09/13 04:32:37;;;;;;;7.90;3.45;;;;;;;;;;5067679;28;20115;-72
2021/09/13 04:35:03;;;;;;;7.55;3.75;;;;;;;;;;5064742;28;20059;-71
2021/09/13 04:37:29;;;;;;;8.63;3.80;;;;;;;;;;5064374;28;20095;-71
2021/09/13 04:39:55;;;;;;;5.55;3.28;;;;;;;;;;5069247;28;20035;-71
2021/09/13 04:42:21;;;;;;;8.30;4.10;;;;;;;;;;5070051;28;20064;-72
2021/09/13 04:44:47;;;;;;;6.68;3.88;;;;;;;;;;5072849;28;20021;-72
2021/09/13 04:47:13;;;;;;;10.27;4.30;;;;;;;;;;5071435;28;20537;-71
2021/09/13 04:49:39;;;;;;;7.18;4.05;;;;;;;;;;5072615;28;20021;-71
2021/09/13 04:52:05;;;;;;;7.65;3.88;;;;;;;;;;5070914;28;20624;-71
2021/09/13 04:54:31;;;;;;;9.40;4.05;;;;;;;;;;5071251;28;20371;-72
2021/09/13 04:56:57;;;;;;;6.78;4.15;;;;;;;;;;5071946;28;20029;-72
2021/09/13 04:59:23;;;;;;;7.55;4.53;;;;;;;;;;5070452;28;20020;-71
2021/09/13 05:01:49;;;;;;;8.88;4.63;;;;;;;;;;5068241;28;20513;-71
2021/09/13 05:04:16;;;;;;;9.02;3.85;;;;;;;;;;5070845;28;20031;-72
2021/09/13 05:06:42;;;;;;;8.48;4.10;;;;;;;;;;5064755;28;20111;-72
2021/09/13 05:09:08;;;;;;;6.82;3.65;;;;;;;;;;5070559;28;20486;-72
2021/09/13 05:11:34;;;;;;;7.00;4.90;;;;;;;;;;5074354;28;20040;-71
2021/09/13 05:14:00;;;;;;;6.45;4.15;;;;;;;;;;5073059;28;20494;-71
2021/09/13 05:16:26;;;;;;;7.15;4.05;;;;;;;;;;5071101;28;20024;-71
2021/09/13 05:18:52;;;;;;;11.35;3.88;;;;;;;;;;5072409;28;20107;-71
2021/09/13 05:21:18;;;;;;;7.10;4.10;;;;;;;;;;5071626;28;20035;-71
2021/09/13 05:23:44;;;;;;;8.38;3.72;;;;;;;;;;5074338;28;20025;-71
2021/09/13 05:26:10;;;;;;;8.07;4.38;;;;;;;;;;5068889;28;20016;-72
2021/09/13 05:28:36;;;;;;;11.07;4.53;;;;;;;;;;5071209;28;20024;-71
2021/09/13 05:31:02;;;;;;;7.82;4.18;;;;;;;;;;5072995;28;20371;-70
2021/09/13 05:33:28;;;;;;;6.95;4.13;;;;;;;;;;5074613;28;20073;-70
2021/09/13 05:35:55;;;;;;;7.97;4.32;;;;;;;;;;5070609;28;20021;-70
2021/09/13 05:38:21;;;;;;;8.02;4.40;;;;;;;;;;5070374;28;20037;-70
2021/09/13 05:40:47;;;;;;;9.68;4.47;;;;;;;;;;5071869;28;20025;-70
2021/09/13 05:43:13;;;;;;;8.80;3.95;;;;;;;;;;5070984;28;20028;-71
2021/09/13 05:45:39;;;;;;;9.20;4.40;;;;;;;;;;5083880;28;20063;-70
2021/09/13 05:48:06;;;;;;;11.20;4.25;;;;;;;;;;5072597;28;20035;-70
2021/09/13 05:50:32;;;;;;;7.40;4.10;;;;;;;;;;5074127;28;20168;-71
2021/09/13 05:52:58;;;;;;;5.93;3.65;;;;;;;;;;5075020;28;20027;-69
2021/09/13 05:55:24;;;;;;;8.88;4.03;;;;;;;;;;5066151;28;20171;-70
2021/09/13 05:57:50;;;;;;;9.85;4.82;;;;;;;;;;5072740;28;20094;-70
2021/09/13 06:00:16;;;;;;;8.05;3.85;;;;;;;;;;5072520;28;20135;-70
2021/09/13 06:02:42;;;;;;;8.95;4.78;;;;;;;;;;5067375;28;20033;-71
2021/09/13 06:05:09;;;;;;;8.88;4.03;;;;;;;;;;5071246;28;20031;-70
2021/09/13 06:07:35;;;;;;;8.98;4.30;;;;;;;;;;5069226;28;20502;-70
2021/09/13 06:10:01;;;;;;;6.75;3.72;;;;;;;;;;5065979;28;20024;-70
2021/09/13 06:12:27;;;;;;;8.68;4.30;;;;;;;;;;5067103;28;20024;-71
2021/09/13 06:14:55;;;;;;;8.75;4.35;;;;;;;;;;5069237;28;20020;-71
2021/09/13 06:17:22;;;;;;;10.25;4.70;;;;;;;;;;5064403;28;20474;-71
2021/09/13 06:19:48;;;;;;;9.30;4.57;;;;;;;;;;5068841;28;20538;-71
2021/09/13 06:22:14;;;;;;;9.88;4.30;;;;;;;;;;5070077;28;20032;-71
2021/09/13 06:24:40;;;;;;;8.85;4.72;;;;;;;;;;5069918;28;20021;-71
2021/09/13 06:27:07;;;;;;;8.05;4.47;;;;;;;;;;5065643;28;20043;-71
2021/09/13 06:29:34;;;;;;;8.90;4.80;;;;;;;;;;5070633;28;20028;-71
2021/09/13 06:32:00;;;;;;;7.97;4.95;;;;;;;;;;5071692;28;20028;-71
2021/09/13 06:34:27;;;;;;;10.32;6.00;;;;;;;;;;5071599;28;20267;-71
2021/09/13 06:36:53;;;;;;;8.38;5.85;;;;;;;;;;5068532;28;20068;-71
2021/09/13 06:39:19;;;;;;;10.23;6.10;;;;;;;;;;5071198;28;20498;-71
2021/09/13 06:41:45;;;;;;;11.88;6.50;;;;;;;;;;5070978;28;20036;-71
2021/09/13 06:44:12;;;;;;;10.13;5.43;;;;;;;;;;5071261;28;20021;-71
2021/09/13 06:49:04;;;;;;;11.57;6.10;;;;;;;;;;5071537;28;20041;-71
2021/09/13 06:51:31;;;;;;;13.88;6.38;;;;;;;;;;5071453;28;20028;-71
2021/09/13 06:53:57;;;;;;;12.88;6.88;;;;;;;;;;5070888;28;20033;-71
2021/09/13 06:56:23;;;;;;;14.55;6.22;;;;;;;;;;5067003;28;20048;-71
2021/09/13 06:58:49;;;;;;;15.05;6.18;;;;;;;;;;5069618;28;20031;-71
2021/09/13 07:01:15;;;;;;;12.05;6.13;;;;;;;;;;5069859;28;20119;-71
2021/09/13 07:03:41;;;;;;;11.32;6.68;;;;;;;;;;5069842;28;20107;-71
2021/09/13 07:06:07;;;;;;;12.07;6.20;;;;;;;;;;5070078;28;20012;-71
2021/09/13 07:08:33;;;;;;;13.30;6.45;;;;;;;;;;5071168;28;20086;-72
2021/09/13 07:11:01;;;;;;;13.30;6.90;;;;;;;;;;5069203;28;20081;-71
2021/09/13 07:13:27;;;;;;;13.43;5.90;;;;;;;;;;5067629;28;20031;-71
2021/09/13 07:15:53;;;;;;;14.75;6.80;;;;;;;;;;5067292;28;20582;-72
2021/09/13 07:18:19;;;;;;;11.40;5.88;;;;;;;;;;5069673;28;20020;-71
2021/09/13 07:20:45;;;;;;;13.98;6.20;;;;;;;;;;5069436;28;20024;-71
2021/09/13 07:23:11;;;;;;;16.13;6.30;;;;;;;;;;5069980;28;20074;-72
2021/09/13 07:25:38;;;;;;;13.63;6.80;;;;;;;;;;5069435;28;20012;-71
2021/09/13 07:28:04;;;;;;;13.30;6.60;;;;;;;;;;5067861;28;20085;-72
2021/09/13 07:30:30;;;;;;;11.57;5.72;;;;;;;;;;5070710;28;20583;-72
2021/09/13 07:32:56;;;;;;;12.30;6.20;;;;;;;;;;5071123;28;20035;-71
2021/09/13 07:35:22;;;;;;;14.02;6.53;;;;;;;;;;5070015;28;20037;-72
2021/09/13 07:37:48;;;;;;;12.18;6.55;;;;;;;;;;5066694;28;20044;-72
2021/09/13 07:40:14;;;;;;;19.67;7.13;;;;;;;;;;5068094;28;20398;-71
2021/09/13 07:42:41;;;;;;;17.20;8.43;;;;;;;;;;5070788;28;20028;-72
2021/09/13 07:45:07;;;;;;;18.65;7.18;;;;;;;;;;5070278;28;20016;-72
2021/09/13 07:47:35;;;;;;;12.77;6.03;;;;;;;;;;5065987;28;20021;-71
2021/09/13 07:50:01;;;;;;;16.67;6.35;;;;;;;;;;5069678;28;20429;-72
2021/09/13 07:52:27;;;;;;;11.18;4.68;;;;;;;;;;5069597;28;20103;-72
2021/09/13 07:54:53;;;;;;;15.07;5.78;;;;;;;;;;5055645;28;20079;-73
2021/09/13 07:57:19;;;;;;;17.83;5.07;;;;;;;;;;5066037;28;20032;-72
2021/09/13 07:59:46;;;;;;;14.63;4.50;;;;;;;;;;5067927;28;20032;-73
2021/09/13 08:02:15;;;;;;;14.13;4.85;;;;;;;;;;5070235;28;20029;-73
2021/09/13 08:04:42;;;;;;;13.75;5.07;;;;;;;;;;5070498;28;20021;-73
2021/09/13 08:07:08;;;;;;;10.65;3.25;;;;;;;;;;5066934;28;20062;-72
2021/09/13 08:09:34;;;;;;;12.18;4.70;;;;;;;;;;5069462;28;20583;-73
2021/09/13 08:12:00;;;;;;;8.57;3.30;;;;;;;;;;5069914;28;20024;-73
2021/09/13 08:14:26;;;;;;;12.13;3.00;;;;;;;;;;5065983;28;20024;-73
2021/09/13 08:16:53;;;;;;;12.88;3.13;;;;;;;;;;5066767;28;20021;-72
2021/09/13 08:19:19;;;;;;;10.00;3.38;;;;;;;;;;5074052;28;20024;-73
2021/09/13 08:21:45;;;;;;;11.07;3.22;;;;;;;;;;5074264;28;20024;-73
2021/09/13 08:24:11;;;;;;;9.70;3.08;;;;;;;;;;5054700;28;20104;-72
2021/09/13 08:26:39;;;;;;;10.27;3.50;;;;;;;;;;5067425;28;20033;-73
2021/09/13 08:29:14;;;;;;;5.75;2.75;;;;;;;;;;5073289;28;20036;-73
2021/09/13 08:31:41;;;;;;;6.70;2.80;;;;;;;;;;5073560;28;20098;-72
2021/09/13 08:34:07;;;;;;;9.10;2.20;;;;;;;;;;5072898;28;20520;-73
2021/09/13 08:36:33;;;;;;;6.18;2.05;;;;;;;;;;5071150;28;20044;-73
2021/09/13 08:38:59;;;;;;;8.88;2.60;;;;;;;;;;5073422;28;20028;-72
2021/09/13 08:41:25;;;;;;;9.75;2.50;;;;;;;;;;5074160;28;20025;-73
2021/09/13 08:43:52;;;;;;;6.15;2.50;;;;;;;;;;5073834;28;20028;-73
2021/09/13 08:46:23;;;;;;;10.10;2.83;;;;;;;;;;5071578;28;20017;-73
2021/09/13 08:49:55;;;;;;;11.70;2.40;;;;;;;;;;5072369;28;20028;-73
2021/09/13 08:51:46;;;;;;;6.95;2.05;;;;;;;;;;5060958;28;20494;-73
2021/09/13 08:54:13;;;;;;;10.35;2.28;;;;;;;;;;5069034;28;20035;-73
2021/09/13 08:56:42;;;;;;;10.30;2.50;;;;;;;;;;5071041;28;20079;-74
2021/09/13 08:59:12;;;;;;;5.65;1.92;;;;;;;;;;5072744;28;20573;-73
2021/09/13 09:01:38;;;;;;;10.10;2.97;;;;;;;;;;5073707;28;20032;-73
2021/09/13 09:04:05;;;;;;;6.97;2.10;;;;;;;;;;5073383;28;20017;-72
2021/09/13 09:06:33;;;;;;;6.45;2.40;;;;;;;;;;5070241;28;20087;-73
2021/09/13 09:09:06;;;;;;;8.70;2.22;;;;;;;;;;5067327;28;20050;-73
2021/09/13 09:11:54;;;;;;;5.90;2.28;;;;;;;;;;5072644;28;20077;-73
2021/09/13 09:14:32;;;;;;;7.80;2.38;;;;;;;;;;5070721;28;20028;-73
2021/09/13 09:16:59;;;;;;;13.73;3.15;;;;;;;;;;5069849;28;20115;-73
2021/09/13 09:19:25;;;;;;;8.80;2.38;;;;;;;;;;5072351;28;20104;-73
2021/09/13 09:21:51;;;;;;;8.57;3.03;;;;;;;;;;5072776;28;20040;-73
2021/09/13 09:24:18;;;;;;;8.75;2.30;;;;;;;;;;5073405;28;20502;-73
2021/09/13 09:27:04;;;;;;;6.13;2.20;;;;;;;;;;5065790;28;20310;-73
2021/09/13 09:29:32;;;;;;;9.02;2.42;;;;;;;;;;5070661;28;20111;-73
2021/09/13 09:31:59;;;;;;;7.40;2.30;;;;;;;;;;5071870;28;20047;-73
2021/09/13 09:34:26;;;;;;;7.97;2.40;;;;;;;;;;5072443;28;20032;-73
2021/09/13 09:36:58;;;;;;;10.05;2.80;;;;;;;;;;5069973;28;20579;-73
2021/09/13 09:39:35;;;;;;;9.25;2.90;;;;;;;;;;5070954;28;20036;-74
2021/09/13 09:42:01;;;;;;;8.45;3.30;;;;;;;;;;5070250;28;20501;-74
2021/09/13 09:44:28;;;;;;;5.68;2.80;;;;;;;;;;5073088;28;20058;-73
2021/09/13 09:47:00;;;;;;;7.47;2.70;;;;;;;;;;5069822;28;20078;-73
2021/09/13 09:49:26;;;;;;;10.60;3.67;;;;;;;;;;5072103;28;20035;-73
2021/09/13 09:51:53;;;;;;;8.35;3.33;;;;;;;;;;5063913;28;20518;-73
2021/09/13 09:54:21;;;;;;;10.27;2.95;;;;;;;;;;5083880;28;20017;-73
2021/09/13 09:56:48;;;;;;;9.88;2.58;;;;;;;;;;5062524;28;20575;-73
2021/09/13 09:59:17;;;;;;;6.93;3.05;;;;;;;;;;5072495;28;20232;-73
2021/09/13 10:01:44;;;;;;;8.27;2.45;;;;;;;;;;5071792;28;20016;-73
2021/09/13 10:04:13;;;;;;;11.45;3.35;;;;;;;;;;5072291;28;20104;-73
2021/09/13 10:06:41;;;;;;;10.80;3.85;;;;;;;;;;5069214;28;20028;-73
2021/09/13 10:09:08;;;;;;;10.23;2.75;;;;;;;;;;5071726;28;20111;-72
2021/09/13 10:11:35;;;;;;;9.18;2.50;;;;;;;;;;5071912;28;20077;-73
2021/09/13 10:14:01;;;;;;;8.73;2.00;;;;;;;;;;5070399;28;20040;-73
2021/09/13 10:16:28;;;;;;;9.27;3.45;;;;;;;;;;5069559;28;20024;-72
2021/09/13 10:18:54;;;;;;;8.95;3.13;;;;;;;;;;5071258;28;20020;-73
2021/09/13 10:21:20;;;;;;;6.65;2.83;;;;;;;;;;5071666;28;20021;-74
2021/09/13 10:23:46;;;;;;;9.93;3.15;;;;;;;;;;5072012;28;20032;-72
2021/09/13 10:26:13;;;;;;;9.15;2.70;;;;;;;;;;5068803;28;20108;-72
2021/09/13 10:28:58;;;;;;;10.23;2.47;;;;;;;;;;5070126;28;20055;-73
2021/09/13 10:31:43;;;;;;;8.85;2.85;;;;;;;;;;5072529;28;20124;-73
2021/09/13 10:34:22;;;;;;;7.68;3.25;;;;;;;;;;5067748;28;20032;-74
2021/09/13 10:37:10;;;;;;;11.10;2.88;;;;;;;;;;5066918;28;20044;-73
2021/09/13 10:39:54;;;;;;;14.18;3.13;;;;;;;;;;5068853;28;20036;-73
2021/09/13 10:42:32;;;;;;;9.35;2.75;;;;;;;;;;5071262;28;20126;-74
2021/09/13 10:45:02;;;;;;;11.05;3.75;;;;;;;;;;5070343;28;20406;-73
2021/09/13 10:47:28;;;;;;;7.05;2.40;;;;;;;;;;5068205;28;20024;-74
2021/09/13 10:50:13;;;;;;;12.27;2.78;;;;;;;;;;5067511;28;20071;-73
2021/09/13 10:52:39;;;;;;;9.40;3.53;;;;;;;;;;5066997;28;20018;-74
2021/09/13 10:55:16;;;;;;;10.45;3.65;;;;;;;;;;5056584;28;20021;-73
2021/09/13 10:57:57;;;;;;;8.20;2.72;;;;;;;;;;5067793;28;20124;-72
2021/09/13 11:00:38;;;;;;;10.75;3.08;;;;;;;;;;5070814;28;20024;-74
2021/09/13 11:03:32;;;;;;;8.03;3.30;;;;;;;;;;5071632;28;20044;-74
2021/09/13 11:06:02;;;;;;;10.07;3.10;;;;;;;;;;5067727;28;20510;-73
2021/09/13 11:08:28;;;;;;;10.18;3.13;;;;;;;;;;5066094;28;20430;-74
2021/09/13 11:10:54;;;;;;;9.02;3.22;;;;;;;;;;5066565;28;20021;-73
2021/09/13 11:13:21;;;;;;;7.97;2.45;;;;;;;;;;5068274;28;20425;-74
2021/09/13 11:15:47;;;;;;;14.45;3.17;;;;;;;;;;5068428;28;20028;-73
2021/09/13 11:18:29;;;;;;;6.00;2.92;;;;;;;;;;5067907;28;20047;-73
2021/09/13 11:20:57;;;;;;;6.15;2.90;;;;;;;;;;5061557;28;20395;-74
2021/09/13 11:23:35;;;;;;;8.38;3.05;;;;;;;;;;5070817;28;20017;-75
2021/09/13 11:26:01;;;;;;;9.73;3.28;;;;;;;;;;5056562;28;20043;-73
2021/09/13 11:28:27;;;;;;;6.55;3.03;;;;;;;;;;5072359;28;20021;-74
2021/09/13 11:30:53;;;;;;;8.45;2.83;;;;;;;;;;5069842;28;20024;-74
2021/09/13 11:33:19;;;;;;;9.80;4.78;;;;;;;;;;5070711;28;20012;-74
2021/09/13 11:35:45;;;;;;;14.35;6.07;;;;;;;;;;5068195;28;20082;-74
2021/09/13 11:38:11;;;;;;;12.00;6.10;;;;;;;;;;5068126;28;20071;-74
2021/09/13 11:40:37;;;;;;;11.88;6.35;;;;;;;;;;5078166;28;20027;-74
2021/09/13 11:43:11;;;;;;;12.73;6.53;;;;;;;;;;5070360;28;20085;-74
2021/09/13 11:45:37;;;;;;;10.52;5.25;;;;;;;;;;5066317;28;20016;-76
2021/09/13 11:48:04;;;;;;;9.85;4.45;;;;;;;;;;5068063;28;20487;-76
2021/09/13 11:50:30;;;;;;;13.63;4.40;;;;;;;;;;5070548;28;20056;-74
2021/09/13 11:52:56;;;;;;;9.57;4.35;;;;;;;;;;5068744;28;20112;-75
2021/09/13 11:55:24;;;;;;;12.23;4.13;;;;;;;;;;5069425;28;20513;-75
2021/09/13 11:57:55;;;;;;;9.65;3.17;;;;;;;;;;5065258;28;20081;-75
2021/09/13 12:00:25;;;;;;;4.25;2.50;;;;;;;;;;5068270;28;20054;-75
2021/09/13 12:02:53;;;;;;;8.80;3.08;;;;;;;;;;5069171;28;20187;-74
2021/09/13 12:05:24;;;;;;;7.32;3.72;;;;;;;;;;5069192;28;20119;-74
2021/09/13 12:07:51;;;;;;;9.55;3.53;;;;;;;;;;5063414;28;20167;-75
2021/09/13 12:10:19;;;;;;;6.55;2.97;;;;;;;;;;5068903;28;20556;-75
2021/09/13 12:12:46;;;;;;;9.50;2.90;;;;;;;;;;5068344;28;20032;-75
2021/09/13 12:15:13;;;;;;;7.10;3.30;;;;;;;;;;5067709;28;20029;-73
2021/09/13 12:17:43;;;;;;;9.38;2.70;;;;;;;;;;5065818;28;20556;-75
2021/09/13 12:20:11;;;;;;;9.57;3.25;;;;;;;;;;5069352;28;20118;-74
2021/09/13 12:22:37;;;;;;;8.82;3.05;;;;;;;;;;5068460;28;20075;-74
2021/09/13 12:25:18;;;;;;;7.75;3.65;;;;;;;;;;5068511;28;20120;-74
2021/09/13 12:27:48;;;;;;;11.13;3.60;;;;;;;;;;5066401;28;20033;-75
2021/09/13 12:30:34;;;;;;;11.75;3.88;;;;;;;;;;5070003;28;20032;-74
2021/09/13 12:33:02;;;;;;;10.70;3.38;;;;;;;;;;5061272;28;20032;-74
2021/09/13 12:35:31;;;;;;;8.45;3.08;;;;;;;;;;5069707;28;20035;-74
2021/09/13 12:37:57;;;;;;;8.00;2.50;;;;;;;;;;5063449;28;20041;-75
2021/09/13 12:40:23;;;;;;;7.93;2.95;;;;;;;;;;5069077;28;20024;-74
2021/09/13 12:42:55;;;;;;;6.65;3.67;;;;;;;;;;5067707;28;20028;-74
2021/09/13 12:45:23;;;;;;;8.00;3.00;;;;;;;;;;5069622;28;20004;-74
2021/09/13 12:47:53;;;;;;;12.98;4.05;;;;;;;;;;5069760;28;20025;-74
2021/09/13 12:50:26;;;;;;;10.05;3.78;;;;;;;;;;5050840;28;20029;-74
2021/09/13 12:52:52;;;;;;;8.75;3.20;;;;;;;;;;5069082;28;20025;-75
2021/09/13 12:55:22;;;;;;;15.85;3.33;;;;;;;;;;5069890;28;20036;-75
2021/09/13 12:57:49;;;;;;;11.32;4.35;;;;;;;;;;5056015;28;20040;-75
2021/09/13 13:00:16;;;;;;;9.13;3.60;;;;;;;;;;5064862;28;20044;-74
2021/09/13 13:02:43;;;;;;;9.15;3.90;;;;;;;;;;5068212;28;20127;-74
2021/09/13 13:05:28;;;;;;;9.70;4.05;;;;;;;;;;5072511;28;20512;-75
2021/09/13 13:07:54;;;;;;;12.60;4.22;;;;;;;;;;5069894;28;20037;-74
2021/09/13 13:10:20;;;;;;;9.77;4.25;;;;;;;;;;5072706;28;20050;-75
2021/09/13 13:12:46;;;;;;;8.73;3.78;;;;;;;;;;5073231;28;20031;-75
2021/09/13 13:15:15;;;;;;;9.75;3.50;;;;;;;;;;5071531;28;20509;-75
2021/09/13 13:17:41;;;;;;;11.80;3.97;;;;;;;;;;5064965;28;20387;-74
2021/09/13 13:20:08;;;;;;;9.82;3.55;;;;;;;;;;5071911;28;20024;-74
2021/09/13 13:22:34;;;;;;;14.73;4.78;;;;;;;;;;5085104;28;20032;-75
2021/09/13 13:25:02;;;;;;;7.68;3.58;;;;;;;;;;5072189;28;20028;-73
2021/09/13 13:27:28;;;;;;;9.32;3.53;;;;;;;;;;5070631;28;20288;-75
2021/09/13 13:29:54;;;;;;;8.98;4.03;;;;;;;;;;5071399;28;20024;-75
2021/09/13 13:32:20;;;;;;;11.40;3.47;;;;;;;;;;5072244;28;20028;-74
2021/09/13 13:34:46;;;;;;;9.40;4.05;;;;;;;;;;5072933;28;20055;-74
2021/09/13 13:37:12;;;;;;;12.23;4.50;;;;;;;;;;5072044;28;20541;-75
2021/09/13 13:39:38;;;;;;;10.30;5.47;;;;;;;;;;5071684;28;20028;-75
2021/09/13 13:42:04;;;;;;;7.93;4.38;;;;;;;;;;5072408;28;20082;-75
2021/09/13 13:44:30;;;;;;;9.30;4.35;;;;;;;;;;5073489;28;20025;-74
2021/09/13 13:46:56;;;;;;;12.15;5.03;;;;;;;;;;5072809;28;20032;-75
2021/09/13 13:49:22;;;;;;;10.18;4.63;;;;;;;;;;5069433;28;20353;-75
2021/09/13 13:51:48;;;;;;;11.02;4.78;;;;;;;;;;5072473;28;20286;-75
2021/09/13 13:54:14;;;;;;;10.93;4.15;;;;;;;;;;5071950;28;20047;-74
2021/09/13 13:56:40;;;;;;;11.13;4.07;;;;;;;;;;5072145;28;20071;-75
2021/09/13 13:59:06;;;;;;;8.02;4.45;;;;;;;;;;5069243;28;20036;-74
2021/09/13 14:01:33;;;;;;;10.25;4.80;;;;;;;;;;5072453;28;20078;-73
2021/09/13 14:03:59;;;;;;;11.07;5.05;;;;;;;;;;5065795;28;20024;-75
2021/09/13 14:06:26;;;;;;;46.58;18.63;;;;;;;;;;5070082;28;20118;-74
2021/09/13 14:08:52;;;;;;;14.80;5.10;;;;;;;;;;5069028;28;20058;-74
2021/09/13 14:11:18;;;;;;;9.77;3.70;;;;;;;;;;5071645;28;20029;-75
2021/09/13 14:13:44;;;;;;;15.73;4.65;;;;;;;;;;5071369;28;20024;-75
2021/09/13 14:16:10;;;;;;;10.05;4.38;;;;;;;;;;5071374;28;20021;-74
2021/09/13 14:18:36;;;;;;;9.57;4.25;;;;;;;;;;5066937;28;20033;-75
2021/09/13 14:21:03;;;;;;;10.80;4.60;;;;;;;;;;5071547;28;20028;-74
2021/09/13 14:23:29;;;;;;;9.45;4.32;;;;;;;;;;5070321;28;20016;-74
2021/09/13 14:25:55;;;;;;;13.40;4.90;;;;;;;;;;5071303;28;20525;-75
2021/09/13 14:28:21;;;;;;;17.95;6.45;;;;;;;;;;5067798;28;20120;-75
2021/09/13 14:30:47;;;;;;;11.20;4.80;;;;;;;;;;5069641;28;20036;-74
2021/09/13 14:33:13;;;;;;;11.43;6.57;;;;;;;;;;5071192;28;20225;-74
2021/09/13 14:35:39;;;;;;;15.02;6.65;;;;;;;;;;5070635;28;20043;-74
2021/09/13 14:38:05;;;;;;;15.40;8.82;;;;;;;;;;5065734;28;20109;-75
2021/09/13 14:40:31;;;;;;;14.77;7.85;;;;;;;;;;5069076;28;20028;-75
2021/09/13 14:42:57;;;;;;;14.63;8.27;;;;;;;;;;5070930;28;20107;-75
2021/09/13 14:45:23;;;;;;;12.15;7.72;;;;;;;;;;5071351;28;20025;-75
2021/09/13 14:47:49;;;;;;;11.82;7.03;;;;;;;;;;5067952;28;20040;-75